Tenstrike, Minnesota
Current Conditions -  °F | °C
As of 2:52 PM on Thursday 27 Nov 2014 (Local Time) from KBJI Reporting Station
Clear Clear  
Wind Chill:   Ceiling: Unl
Heat Index:   Visibility: 10mi
Dew Point: -8°   Wind: 3mph
Humidity: 60%   Direction: 110°ESE
Pressure: 30.3"   Gusts: NA
Location:  47.66°N, 94.67°W
Report Text: KBJI 272052Z AUTO 11003KT 10SM CLR M16/M22 A3030 RMK AO2 T11591220
Loading
Personal Weather Stations






























Interactive Weather Map New forecast layout! Learn more

10-Day Weather Forecast

Advertisements
Track Severe Weather on mobile